Time,TemperatureF,DewpointF,PressureIn,WindDirection,WindDirectionDegrees,WindSpeedMPH,WindSpeedGustMPH,Humidity,HourlyPrecipIn,Conditions,Clouds,dailyrainin,SoftwareType,DateUTC
2013-01-26 00:09:00,32.4,32.4,30.04,ENE,68,1.0,7.0,100,0.00,,,0.00,WeatherDisplay:10.37,2013-01-26 05:09:00,
2013-01-26 00:19:00,32.4,32.4,30.04,ENE,68,2.0,6.0,100,0.00,,,0.00,WeatherDisplay:10.37,2013-01-26 05:19:00,
2013-01-26 00:29:00,32.4,32.4,30.04,ENE,68,2.0,5.0,100,0.00,,,0.00,WeatherDisplay:10.37,2013-01-26 05:29:00,
2013-01-26 00:39:00,32.2,32.2,30.04,ENE,68,2.0,4.0,100,0.00,,,0.00,WeatherDisplay:10.37,2013-01-26 05:39:00,
2013-01-26 00:49:00,32.2,32.2,30.04,ENE,68,2.0,5.0,100,0.00,,,0.00,WeatherDisplay:10.37,2013-01-26 05:49:00,
2013-01-26 00:59:00,32.2,32.2,30.04,ENE,68,3.0,6.0,100,0.00,,,0.00,WeatherDisplay:10.37,2013-01-26 05:59:00,
2013-01-26 01:09:00,32.2,32.2,30.04,ENE,68,2.0,5.0,100,0.00,,,0.00,WeatherDisplay:10.37,2013-01-26 06:09:00,
2013-01-26 01:19:00,32.2,32.2,30.04,ENE,68,1.0,4.0,100,0.00,,,0.00,WeatherDisplay:10.37,2013-01-26 06:19:00,
2013-01-26 01:29:00,32.2,32.2,30.04,ENE,68,2.0,5.0,100,0.00,,,0.00,WeatherDisplay:10.37,2013-01-26 06:29:00,
2013-01-26 01:39:00,32.2,32.2,30.07,ENE,68,1.0,5.0,100,0.00,,,0.00,WeatherDisplay:10.37,2013-01-26 06:39:00,
2013-01-26 01:49:00,32.2,32.2,30.07,ENE,68,2.0,7.0,100,0.00,,,0.00,WeatherDisplay:10.37,2013-01-26 06:49:00,
2013-01-26 01:59:00,32.2,32.2,30.07,ENE,68,2.0,6.0,100,0.00,,,0.00,WeatherDisplay:10.37,2013-01-26 06:59:00,
2013-01-26 02:09:00,32.0,32.0,30.07,ENE,68,1.0,5.0,100,0.00,,,0.00,WeatherDisplay:10.37,2013-01-26 07:09:00,
2013-01-26 02:19:00,32.0,32.0,30.07,ENE,68,3.0,5.0,100,0.00,,,0.00,WeatherDisplay:10.37,2013-01-26 07:19:00,
2013-01-26 02:29:00,32.0,32.0,30.07,ENE,68,2.0,4.0,100,0.00,,,0.00,WeatherDisplay:10.37,2013-01-26 07:29:00,
2013-01-26 02:39:00,31.8,31.8,30.07,ENE,68,2.0,3.0,100,0.00,,,0.00,WeatherDisplay:10.37,2013-01-26 07:39:00,
2013-01-26 02:49:00,31.8,31.8,30.07,ENE,68,1.0,4.0,100,0.00,,,0.00,WeatherDisplay:10.37,2013-01-26 07:49:00,
2013-01-26 02:59:00,31.6,31.6,30.07,ENE,68,1.0,2.0,100,0.00,,,0.00,WeatherDisplay:10.37,2013-01-26 07:59:00,
2013-01-26 03:09:00,31.6,31.6,30.07,ENE,68,1.0,4.0,100,0.00,,,0.00,WeatherDisplay:10.37,2013-01-26 08:09:00,
2013-01-26 03:19:00,31.6,31.6,30.07,ENE,68,2.0,5.0,100,0.00,,,0.00,WeatherDisplay:10.37,2013-01-26 08:19:00,
2013-01-26 03:29:00,31.5,31.5,30.07,ENE,68,0.0,2.0,100,0.00,,,0.00,WeatherDisplay:10.37,2013-01-26 08:29:00,
2013-01-26 03:39:00,31.5,31.5,30.07,ENE,68,0.0,4.0,100,0.00,,,0.00,WeatherDisplay:10.37,2013-01-26 08:39:00,
2013-01-26 03:49:00,31.5,31.5,30.07,ENE,68,1.0,3.0,100,0.00,,,0.00,WeatherDisplay:10.37,2013-01-26 08:49:00,
2013-01-26 03:59:00,31.5,31.5,30.07,ENE,68,2.0,3.0,100,0.00,,,0.00,WeatherDisplay:10.37,2013-01-26 08:59:00,
2013-01-26 04:09:00,31.5,31.5,30.07,ENE,68,1.0,3.0,100,0.00,,,0.00,WeatherDisplay:10.37,2013-01-26 09:09:00,
2013-01-26 04:19:00,31.3,31.3,30.07,ENE,68,1.0,4.0,100,0.00,,,0.00,WeatherDisplay:10.37,2013-01-26 09:19:00,
2013-01-26 04:29:00,31.3,31.3,30.07,ENE,68,2.0,4.0,100,0.00,,,0.00,WeatherDisplay:10.37,2013-01-26 09:29:00,
2013-01-26 04:39:00,31.1,30.3,30.07,ENE,68,1.0,3.0,97,0.00,CLR,,0.00,WeatherDisplay:10.37,2013-01-26 09:39:00,
2013-01-26 04:49:00,31.1,30.3,30.07,ENE,68,2.0,5.0,97,0.00,CLR,,0.00,WeatherDisplay:10.37,2013-01-26 09:49:00,
2013-01-26 04:59:00,31.1,30.3,30.07,ENE,68,2.0,6.0,97,0.00,CLR,,0.00,WeatherDisplay:10.37,2013-01-26 09:59:00,
2013-01-26 05:09:00,30.9,29.9,30.10,ENE,68,2.0,5.0,96,0.00,CLR,,0.00,WeatherDisplay:10.37,2013-01-26 10:09:00,
2013-01-26 05:19:00,30.9,29.7,30.07,ENE,68,1.0,5.0,95,0.00,CLR,,0.00,WeatherDisplay:10.37,2013-01-26 10:19:00,
2013-01-26 05:29:00,30.9,29.4,30.07,ENE,68,1.0,3.0,94,0.00,CLR,,0.00,WeatherDisplay:10.37,2013-01-26 10:29:00,
2013-01-26 05:39:00,30.7,29.0,30.10,ENE,68,1.0,5.0,93,0.00,CLR,,0.00,WeatherDisplay:10.37,2013-01-26 10:39:00,
2013-01-26 05:49:00,30.7,28.7,30.10,ENE,68,1.0,3.0,92,0.00,CLR,,0.00,WeatherDisplay:10.37,2013-01-26 10:49:00,
2013-01-26 05:59:00,30.7,28.7,30.10,ENE,68,2.0,3.0,92,0.00,CLR,,0.00,WeatherDisplay:10.37,2013-01-26 10:59:00,
2013-01-26 06:09:00,30.6,28.2,30.10,ENE,68,2.0,3.0,91,0.00,CLR,,0.00,WeatherDisplay:10.37,2013-01-26 11:09:00,
2013-01-26 06:19:00,30.6,28.0,30.10,ENE,68,1.0,3.0,90,0.00,CLR,,0.00,WeatherDisplay:10.37,2013-01-26 11:19:00,
2013-01-26 06:29:00,30.4,27.8,30.10,ENE,68,2.0,3.0,90,0.00,CLR,,0.00,WeatherDisplay:10.37,2013-01-26 11:29:00,
2013-01-26 06:39:00,30.4,27.8,30.10,ENE,68,2.0,3.0,90,0.00,CLR,,0.00,WeatherDisplay:10.37,2013-01-26 11:39:00,
2013-01-26 06:49:00,30.2,27.6,30.10,ENE,68,2.0,5.0,90,0.00,CLR,,0.00,WeatherDisplay:10.37,2013-01-26 11:49:00,
2013-01-26 06:59:00,30.2,27.6,30.10,ENE,68,2.0,4.0,90,0.00,CLR,,0.00,WeatherDisplay:10.37,2013-01-26 11:59:00,
2013-01-26 07:09:00,30.0,27.4,30.13,ENE,68,2.0,5.0,90,0.00,CLR,,0.00,WeatherDisplay:10.37,2013-01-26 12:09:00,
2013-01-26 07:19:00,30.0,27.4,30.13,ENE,68,2.0,4.0,90,0.00,CLR,,0.00,WeatherDisplay:10.37,2013-01-26 12:19:00,
2013-01-26 07:29:00,29.8,27.0,30.13,ENE,68,2.0,5.0,89,0.00,CLR,,0.00,WeatherDisplay:10.37,2013-01-26 12:29:00,
2013-01-26 07:39:00,29.7,26.8,30.13,ENE,68,1.0,5.0,89,0.00,CLR,,0.00,WeatherDisplay:10.37,2013-01-26 12:39:00,
2013-01-26 07:49:00,29.5,26.4,30.13,ENE,68,1.0,3.0,88,0.00,CLR,,0.00,WeatherDisplay:10.37,2013-01-26 12:49:00,
2013-01-26 07:59:00,29.3,26.2,30.13,ENE,68,1.0,3.0,88,0.00,CLR,,0.00,WeatherDisplay:10.37,2013-01-26 12:59:00,
2013-01-26 08:09:00,29.3,26.2,30.13,ENE,68,2.0,4.0,88,0.00,CLR,,0.00,WeatherDisplay:10.37,2013-01-26 13:09:00,
2013-01-26 08:19:00,29.3,26.2,30.13,ENE,68,1.0,5.0,88,0.00,CLR,,0.00,WeatherDisplay:10.37,2013-01-26 13:19:00,
2013-01-26 08:29:00,29.1,25.7,30.13,ENE,68,1.0,4.0,87,0.00,CLR,,0.00,WeatherDisplay:10.37,2013-01-26 13:29:00,
2013-01-26 08:39:00,29.1,25.7,30.16,ENE,68,2.0,3.0,87,0.00,CLR,,0.00,WeatherDisplay:10.37,2013-01-26 13:39:00,
2013-01-26 08:49:00,28.9,25.6,30.13,ENE,68,2.0,8.0,87,0.00,CLR,,0.00,WeatherDisplay:10.37,2013-01-26 13:49:00,
2013-01-26 08:59:00,29.1,25.7,30.13,ENE,68,2.0,8.0,87,0.00,CLR,,0.00,WeatherDisplay:10.37,2013-01-26 13:59:00,
2013-01-26 09:09:00,29.5,26.4,30.13,ENE,68,3.0,7.0,88,0.00,CLR,,0.00,WeatherDisplay:10.37,2013-01-26 14:09:00,
2013-01-26 09:19:00,29.7,26.5,30.13,ENE,68,3.0,7.0,88,0.00,CLR,,0.00,WeatherDisplay:10.37,2013-01-26 14:19:00,
2013-01-26 09:29:00,29.8,26.7,30.13,ENE,68,2.0,9.0,88,0.00,CLR,,0.00,WeatherDisplay:10.37,2013-01-26 14:29:00,
2013-01-26 09:39:00,30.2,26.8,30.16,ENE,68,2.0,8.0,87,0.00,CLR,,0.00,WeatherDisplay:10.37,2013-01-26 14:39:00,
2013-01-26 09:49:00,30.4,26.7,30.16,ENE,68,2.0,6.0,86,0.00,CLR,,0.00,WeatherDisplay:10.37,2013-01-26 14:49:00,
2013-01-26 09:59:00,30.2,24.8,30.16,ENE,68,3.0,6.0,80,0.00,CLR,,0.00,WeatherDisplay:10.37,2013-01-26 14:59:00,
2013-01-26 10:09:00,30.6,25.1,30.16,ENE,68,2.0,3.0,80,0.00,CLR,,0.00,WeatherDisplay:10.37,2013-01-26 15:09:00,
2013-01-26 10:19:00,30.7,25.6,30.16,ENE,68,2.0,5.0,81,0.00,CLR,,0.00,WeatherDisplay:10.37,2013-01-26 15:19:00,
2013-01-26 10:29:00,30.6,24.5,30.16,ENE,68,3.0,6.0,78,0.00,CLR,,0.00,WeatherDisplay:10.37,2013-01-26 15:29:00,
2013-01-26 10:39:00,31.1,24.7,30.19,ENE,68,2.0,6.0,77,0.00,CLR,,0.00,WeatherDisplay:10.37,2013-01-26 15:39:00,
2013-01-26 10:49:00,31.3,24.9,30.19,ENE,68,2.0,10.0,77,0.00,CLR,,0.00,WeatherDisplay:10.37,2013-01-26 15:49:00,
2013-01-26 11:00:00,31.1,24.1,30.19,ENE,68,5.0,8.0,75,0.00,CLR,,0.00,WeatherDisplay:10.37,2013-01-26 16:00:00,
2013-01-26 11:09:00,31.1,24.1,30.19,ENE,68,3.0,8.0,75,0.00,CLR,,0.00,WeatherDisplay:10.37,2013-01-26 16:09:00,
2013-01-26 11:19:00,31.3,24.6,30.19,ENE,68,2.0,6.0,76,0.00,CLR,,0.00,WeatherDisplay:10.37,2013-01-26 16:19:00,
2013-01-26 11:29:00,31.3,24.6,30.19,ENE,68,2.0,5.0,76,0.00,CLR,,0.00,WeatherDisplay:10.37,2013-01-26 16:29:00,
2013-01-26 11:39:00,31.5,24.4,30.19,ENE,68,1.0,3.0,75,0.00,CLR,,0.00,WeatherDisplay:10.37,2013-01-26 16:39:00,
2013-01-26 11:49:00,31.6,24.6,30.22,ENE,68,3.0,6.0,75,0.00,CLR,,0.00,WeatherDisplay:10.37,2013-01-26 16:49:00,
2013-01-26 11:59:00,32.0,25.3,30.22,ENE,68,2.0,6.0,76,0.00,CLR,,0.00,WeatherDisplay:10.37,2013-01-26 16:59:00,
2013-01-26 12:09:00,31.8,24.5,30.22,ENE,68,2.0,6.0,74,0.00,CLR,,0.00,WeatherDisplay:10.37,2013-01-26 17:09:00,
2013-01-26 12:19:00,32.1,25.0,30.22,ENE,68,1.0,4.0,75,0.00,CLR,,0.00,WeatherDisplay:10.37,2013-01-26 17:19:00,
2013-01-26 12:29:00,32.5,25.5,30.22,ENE,68,2.0,4.0,75,0.00,CLR,,0.00,WeatherDisplay:10.37,2013-01-26 17:29:00,
2013-01-26 12:39:00,32.9,25.5,30.22,ENE,68,1.0,5.0,74,0.00,CLR,,0.00,WeatherDisplay:10.37,2013-01-26 17:39:00,
2013-01-26 12:49:00,32.7,24.3,30.22,ENE,68,2.0,6.0,71,0.00,CLR,,0.00,WeatherDisplay:10.37,2013-01-26 17:49:00,
2013-01-26 12:59:00,32.8,24.1,30.22,ENE,68,3.0,7.0,70,0.00,CLR,,0.00,WeatherDisplay:10.37,2013-01-26 17:59:00,
2013-01-26 13:09:00,32.7,21.9,30.19,ENE,68,2.0,5.0,64,0.00,CLR,,0.00,WeatherDisplay:10.37,2013-01-26 18:09:00,
2013-01-26 13:19:00,33.1,22.2,30.19,ENE,68,1.0,5.0,64,0.00,CLR,,0.00,WeatherDisplay:10.37,2013-01-26 18:19:00,
2013-01-26 13:29:00,33.6,23.8,30.19,ENE,68,0.0,3.0,67,0.00,CLR,,0.00,WeatherDisplay:10.37,2013-01-26 18:29:00,
2013-01-26 13:39:00,33.6,23.5,30.19,ENE,68,1.0,3.0,66,0.00,CLR,,0.00,WeatherDisplay:10.37,2013-01-26 18:39:00,
2013-01-26 13:49:00,33.6,22.7,30.19,ENE,68,1.0,4.0,64,0.00,CLR,,0.00,WeatherDisplay:10.37,2013-01-26 18:49:00,
2013-01-26 13:59:00,33.3,22.0,30.19,ENE,68,1.0,4.0,63,0.00,CLR,,0.00,WeatherDisplay:10.37,2013-01-26 18:59:00,
2013-01-26 14:09:00,33.6,23.8,30.19,ENE,68,0.0,2.0,67,0.00,CLR,,0.00,WeatherDisplay:10.37,2013-01-26 19:09:00,
2013-01-26 14:19:00,33.3,22.0,30.19,ENE,68,1.0,3.0,63,0.00,CLR,,0.00,WeatherDisplay:10.37,2013-01-26 19:19:00,
2013-01-26 14:29:00,33.1,22.6,30.19,ENE,68,0.0,2.0,65,0.00,CLR,,0.00,WeatherDisplay:10.37,2013-01-26 19:29:00,
2013-01-26 14:39:00,33.1,22.6,30.19,ENE,68,1.0,3.0,65,0.00,CLR,,0.00,WeatherDisplay:10.37,2013-01-26 19:39:00,
2013-01-26 14:49:00,33.1,23.3,30.19,ENE,68,1.0,3.0,67,0.00,CLR,,0.00,WeatherDisplay:10.37,2013-01-26 19:49:00,
2013-01-26 14:59:00,33.4,24.0,30.19,ENE,68,1.0,2.0,68,0.00,CLR,,0.00,WeatherDisplay:10.37,2013-01-26 19:59:00,
2013-01-26 15:09:00,33.3,22.8,30.19,ENE,68,0.0,2.0,65,0.00,CLR,,0.00,WeatherDisplay:10.37,2013-01-26 20:09:00,
2013-01-26 15:19:00,33.4,23.3,30.19,ENE,68,0.0,0.0,66,0.00,CLR,,0.00,WeatherDisplay:10.37,2013-01-26 20:19:00,
2013-01-26 15:29:00,33.3,23.1,30.19,ENE,68,0.0,0.0,66,0.00,CLR,,0.00,WeatherDisplay:10.37,2013-01-26 20:29:00,
2013-01-26 15:39:00,33.3,23.8,30.19,ENE,68,0.0,0.0,68,0.00,CLR,,0.00,WeatherDisplay:10.37,2013-01-26 20:39:00,
2013-01-26 15:49:00,33.1,22.6,30.19,ENE,68,0.0,0.0,65,0.00,CLR,,0.00,WeatherDisplay:10.37,2013-01-26 20:49:00,
2013-01-26 15:59:00,33.1,23.3,30.19,ENE,68,0.0,0.0,67,0.00,CLR,,0.00,WeatherDisplay:10.37,2013-01-26 20:59:00,
2013-01-26 16:09:00,33.1,24.0,30.19,ENE,68,0.0,0.0,69,0.00,CLR,,0.00,WeatherDisplay:10.37,2013-01-26 21:09:00,
2013-01-26 16:19:00,33.1,25.0,30.22,ENE,68,0.0,0.0,72,0.00,CLR,,0.00,WeatherDisplay:10.37,2013-01-26 21:19:00,
2013-01-26 16:29:00,32.9,25.2,30.22,ENE,68,0.0,0.0,73,0.00,CLR,,0.00,WeatherDisplay:10.37,2013-01-26 21:29:00,
2013-01-26 16:39:00,32.8,25.1,30.22,ENE,68,0.0,0.0,73,0.00,CLR,,0.00,WeatherDisplay:10.37,2013-01-26 21:39:00,
2013-01-26 16:49:00,32.7,24.7,30.22,ENE,68,0.0,0.0,72,0.00,CLR,,0.00,WeatherDisplay:10.37,2013-01-26 21:49:00,
2013-01-26 16:59:00,32.7,24.3,30.22,ENE,68,0.0,0.0,71,0.00,CLR,,0.00,WeatherDisplay:10.37,2013-01-26 21:59:00,
2013-01-26 17:09:00,32.7,24.7,30.22,ENE,68,0.0,0.0,72,0.00,CLR,,0.00,WeatherDisplay:10.37,2013-01-26 22:09:00,
2013-01-26 17:19:00,32.5,24.8,30.22,ENE,68,0.0,0.0,73,0.00,CLR,,0.00,WeatherDisplay:10.37,2013-01-26 22:19:00,
2013-01-26 17:29:00,32.5,24.8,30.22,ENE,68,0.0,0.0,73,0.00,CLR,,0.00,WeatherDisplay:10.37,2013-01-26 22:29:00,
2013-01-26 17:39:00,32.5,24.8,30.19,ENE,68,0.0,0.0,73,0.00,CLR,,0.00,WeatherDisplay:10.37,2013-01-26 22:39:00,
2013-01-26 17:49:00,32.2,24.5,30.19,ENE,68,0.0,0.0,73,0.00,CLR,,0.00,WeatherDisplay:10.37,2013-01-26 22:49:00,
2013-01-26 17:59:00,32.2,24.5,30.19,ENE,68,0.0,0.0,73,0.00,CLR,,0.00,WeatherDisplay:10.37,2013-01-26 22:59:00,
2013-01-26 18:09:00,31.8,24.5,30.19,ENE,68,0.0,0.0,74,0.00,CLR,,0.00,WeatherDisplay:10.37,2013-01-26 23:09:00,
2013-01-26 18:19:00,31.6,24.6,30.22,ENE,68,0.0,0.0,75,0.00,CLR,,0.00,WeatherDisplay:10.37,2013-01-26 23:19:00,
2013-01-26 18:29:00,31.3,24.3,30.22,ENE,68,0.0,0.0,75,0.00,CLR,,0.00,WeatherDisplay:10.37,2013-01-26 23:29:00,
2013-01-26 18:39:00,30.7,23.4,30.22,ENE,68,0.0,0.0,74,0.00,CLR,,0.00,WeatherDisplay:10.37,2013-01-26 23:39:00,
2013-01-26 18:49:00,30.4,22.8,30.22,ENE,68,0.0,0.0,73,0.00,CLR,,0.00,WeatherDisplay:10.37,2013-01-26 23:49:00,
2013-01-26 18:59:00,30.0,23.1,30.22,ENE,68,0.0,0.0,75,0.00,CLR,,0.00,WeatherDisplay:10.37,2013-01-26 23:59:00,
2013-01-26 19:09:00,29.8,23.2,30.22,ENE,68,0.0,0.0,76,0.00,CLR,,0.00,WeatherDisplay:10.37,2013-01-27 00:09:00,
2013-01-26 19:19:00,29.7,23.3,30.22,ENE,68,0.0,0.0,77,0.00,CLR,,0.00,WeatherDisplay:10.37,2013-01-27 00:19:00,
2013-01-26 19:29:00,29.1,22.5,30.22,ENE,68,0.0,0.0,76,0.00,CLR,,0.00,WeatherDisplay:10.37,2013-01-27 00:29:00,
2013-01-26 19:39:00,28.8,22.1,30.22,ENE,68,0.0,0.0,76,0.00,CLR,,0.00,WeatherDisplay:10.37,2013-01-27 00:39:00,
2013-01-26 19:49:00,28.4,21.8,30.22,ENE,68,0.0,0.0,76,0.00,CLR,,0.00,WeatherDisplay:10.37,2013-01-27 00:49:00,
2013-01-26 19:59:00,28.0,21.4,30.22,ENE,68,0.0,0.0,76,0.00,CLR,,0.00,WeatherDisplay:10.37,2013-01-27 00:59:00,
2013-01-26 20:09:00,27.9,21.6,30.25,ENE,68,0.0,0.0,77,0.00,CLR,,0.00,WeatherDisplay:10.37,2013-01-27 01:09:00,
2013-01-26 20:19:00,27.7,21.7,30.22,ENE,68,0.0,0.0,78,0.00,CLR,,0.00,WeatherDisplay:10.37,2013-01-27 01:19:00,
2013-01-26 20:29:00,27.5,21.5,30.22,ENE,68,0.0,0.0,78,0.00,CLR,,0.00,WeatherDisplay:10.37,2013-01-27 01:29:00,
2013-01-26 20:39:00,27.3,22.3,30.22,ENE,68,0.0,0.0,81,0.00,CLR,,0.00,WeatherDisplay:10.37,2013-01-27 01:39:00,
2013-01-26 20:49:00,27.5,23.3,30.25,ENE,68,0.0,0.0,84,0.00,CLR,,0.00,WeatherDisplay:10.37,2013-01-27 01:49:00,
2013-01-26 20:59:00,27.5,23.9,30.25,ENE,68,0.0,0.0,86,0.00,CLR,,0.00,WeatherDisplay:10.37,2013-01-27 01:59:00,
2013-01-26 21:09:00,27.5,24.1,30.25,ENE,68,0.0,0.0,87,0.00,CLR,,0.00,WeatherDisplay:10.37,2013-01-27 02:09:00,
2013-01-26 21:19:00,27.4,24.3,30.25,ENE,68,0.0,0.0,88,0.00,CLR,,0.00,WeatherDisplay:10.37,2013-01-27 02:19:00,
2013-01-26 21:29:00,27.3,24.5,30.25,ENE,68,0.0,0.0,89,0.00,CLR,,0.00,WeatherDisplay:10.37,2013-01-27 02:29:00,
2013-01-26 21:39:00,27.3,24.5,30.25,ENE,68,0.0,0.0,89,0.00,CLR,,0.00,WeatherDisplay:10.37,2013-01-27 02:39:00,
2013-01-26 21:49:00,27.3,24.5,30.25,ENE,68,0.0,0.0,89,0.00,CLR,,0.00,WeatherDisplay:10.37,2013-01-27 02:49:00,
2013-01-26 21:59:00,27.1,24.3,30.25,ENE,68,0.0,0.0,89,0.00,CLR,,0.00,WeatherDisplay:10.37,2013-01-27 02:59:00,
2013-01-26 22:09:00,27.0,23.9,30.25,ENE,68,0.0,0.0,88,0.00,CLR,,0.00,WeatherDisplay:10.37,2013-01-27 03:09:00,
2013-01-26 22:19:00,27.0,23.3,30.25,ENE,68,0.0,0.0,86,0.00,CLR,,0.00,WeatherDisplay:10.37,2013-01-27 03:19:00,
2013-01-26 22:29:00,27.0,23.6,30.25,ENE,68,0.0,0.0,87,0.00,CLR,,0.00,WeatherDisplay:10.37,2013-01-27 03:29:00,
2013-01-26 22:39:00,27.0,23.3,30.25,ENE,68,0.0,0.0,86,0.00,CLR,,0.00,WeatherDisplay:10.37,2013-01-27 03:39:00,
2013-01-26 22:49:00,26.8,22.9,30.25,ENE,68,0.0,0.0,85,0.00,CLR,,0.00,WeatherDisplay:10.37,2013-01-27 03:49:00,
2013-01-26 22:59:00,26.6,22.4,30.25,ENE,68,0.0,0.0,84,0.00,CLR,,0.00,WeatherDisplay:10.37,2013-01-27 03:59:00,
2013-01-26 23:09:00,26.4,22.2,30.25,ENE,68,0.0,0.0,84,0.00,CLR,,0.00,WeatherDisplay:10.37,2013-01-27 04:09:00,
2013-01-26 23:19:00,26.4,22.0,30.25,ENE,68,0.0,0.0,83,0.00,CLR,,0.00,WeatherDisplay:10.37,2013-01-27 04:19:00,
2013-01-26 23:29:00,26.2,21.5,30.25,ENE,68,0.0,0.0,82,0.00,CLR,,0.00,WeatherDisplay:10.37,2013-01-27 04:29:00,
2013-01-26 23:39:00,26.1,21.3,30.28,ENE,68,0.0,0.0,82,0.00,CLR,,0.00,WeatherDisplay:10.37,2013-01-27 04:39:00,
2013-01-26 23:49:00,25.9,20.9,30.28,ENE,68,0.0,0.0,81,0.00,CLR,,0.00,WeatherDisplay:10.37,2013-01-27 04:49:00,
2013-01-26 23:59:00,25.7,20.7,30.28,ENE,68,0.0,0.0,81,0.00,CLR,,0.00,WeatherDisplay:10.37,2013-01-27 04:59:00,